sensor_id;sensor_type;location;lat;lon;timestamp;P1;durP1;ratioP1;P2;durP2;ratioP2
18455;SDS011;9357;49.900;8.208;2022-09-09T00:01:03;2.73;;;1.60;;
18455;SDS011;9357;49.900;8.208;2022-09-09T00:02:41;2.43;;;1.43;;
18455;SDS011;9357;49.900;8.208;2022-09-09T00:04:24;2.73;;;1.40;;
18455;SDS011;9357;49.900;8.208;2022-09-09T00:06:02;2.30;;;1.43;;
18455;SDS011;9357;49.900;8.208;2022-09-09T00:07:41;3.23;;;1.30;;
18455;SDS011;9357;49.900;8.208;2022-09-09T00:09:19;3.57;;;1.40;;
18455;SDS011;9357;49.900;8.208;2022-09-09T00:10:57;2.83;;;1.40;;
18455;SDS011;9357;49.900;8.208;2022-09-09T00:12:34;3.20;;;1.33;;
18455;SDS011;9357;49.900;8.208;2022-09-09T00:14:18;3.17;;;1.50;;
18455;SDS011;9357;49.900;8.208;2022-09-09T00:15:57;1.23;;;1.10;;
18455;SDS011;9357;49.900;8.208;2022-09-09T00:17:36;3.63;;;1.40;;
18455;SDS011;9357;49.900;8.208;2022-09-09T00:19:15;2.00;;;1.33;;
18455;SDS011;9357;49.900;8.208;2022-09-09T00:20:55;1.80;;;1.40;;
18455;SDS011;9357;49.900;8.208;2022-09-09T00:22:35;3.47;;;1.50;;
18455;SDS011;9357;49.900;8.208;2022-09-09T00:24:12;3.70;;;1.47;;
18455;SDS011;9357;49.900;8.208;2022-09-09T00:25:59;2.77;;;1.47;;
18455;SDS011;9357;49.900;8.208;2022-09-09T00:27:37;4.97;;;1.50;;
18455;SDS011;9357;49.900;8.208;2022-09-09T00:29:14;3.83;;;1.33;;
18455;SDS011;9357;49.900;8.208;2022-09-09T00:30:59;2.43;;;1.40;;
18455;SDS011;9357;49.900;8.208;2022-09-09T00:32:41;3.13;;;1.23;;
18455;SDS011;9357;49.900;8.208;2022-09-09T00:34:18;2.53;;;1.10;;
18455;SDS011;9357;49.900;8.208;2022-09-09T00:35:54;2.73;;;1.40;;
18455;SDS011;9357;49.900;8.208;2022-09-09T00:37:28;2.73;;;1.60;;
18455;SDS011;9357;49.900;8.208;2022-09-09T00:39:04;2.13;;;1.60;;
18455;SDS011;9357;49.900;8.208;2022-09-09T00:40:41;3.80;;;1.53;;
18455;SDS011;9357;49.900;8.208;2022-09-09T00:42:23;2.10;;;1.40;;
18455;SDS011;9357;49.900;8.208;2022-09-09T00:43:57;12.13;;;6.63;;
18455;SDS011;9357;49.900;8.208;2022-09-09T00:45:52;11.30;;;5.70;;
18455;SDS011;9357;49.900;8.208;2022-09-09T00:47:39;3.30;;;2.77;;
18455;SDS011;9357;49.900;8.208;2022-09-09T00:49:20;4.60;;;1.93;;
18455;SDS011;9357;49.900;8.208;2022-09-09T00:51:00;3.37;;;1.60;;
18455;SDS011;9357;49.900;8.208;2022-09-09T00:52:40;2.77;;;1.50;;
18455;SDS011;9357;49.900;8.208;2022-09-09T00:56:13;5.10;;;1.47;;
18455;SDS011;9357;49.900;8.208;2022-09-09T00:57:50;3.57;;;1.40;;
18455;SDS011;9357;49.900;8.208;2022-09-09T00:59:25;2.80;;;1.47;;
18455;SDS011;9357;49.900;8.208;2022-09-09T01:01:09;3.97;;;1.40;;
18455;SDS011;9357;49.900;8.208;2022-09-09T01:02:47;4.60;;;1.60;;
18455;SDS011;9357;49.900;8.208;2022-09-09T01:04:47;2.90;;;1.30;;
18455;SDS011;9357;49.900;8.208;2022-09-09T01:06:20;2.93;;;1.40;;
18455;SDS011;9357;49.900;8.208;2022-09-09T01:07:58;2.40;;;1.30;;
18455;SDS011;9357;49.900;8.208;2022-09-09T01:09:34;4.03;;;1.50;;
18455;SDS011;9357;49.900;8.208;2022-09-09T01:11:20;3.90;;;1.20;;
18455;SDS011;9357;49.900;8.208;2022-09-09T01:12:55;2.47;;;1.50;;
18455;SDS011;9357;49.900;8.208;2022-09-09T01:14:38;3.37;;;1.37;;
18455;SDS011;9357;49.900;8.208;2022-09-09T01:16:13;3.20;;;1.27;;
18455;SDS011;9357;49.900;8.208;2022-09-09T01:17:50;3.00;;;1.37;;
18455;SDS011;9357;49.900;8.208;2022-09-09T01:19:27;4.73;;;1.43;;
18455;SDS011;9357;49.900;8.208;2022-09-09T01:21:15;4.00;;;1.43;;
18455;SDS011;9357;49.900;8.208;2022-09-09T01:22:57;3.50;;;1.50;;
18455;SDS011;9357;49.900;8.208;2022-09-09T01:24:44;3.23;;;1.40;;
18455;SDS011;9357;49.900;8.208;2022-09-09T01:26:38;3.80;;;1.10;;
18455;SDS011;9357;49.900;8.208;2022-09-09T01:28:14;3.17;;;1.80;;
18455;SDS011;9357;49.900;8.208;2022-09-09T01:29:50;5.30;;;1.30;;
18455;SDS011;9357;49.900;8.208;2022-09-09T01:31:26;4.30;;;1.30;;
18455;SDS011;9357;49.900;8.208;2022-09-09T01:33:02;3.43;;;1.30;;
18455;SDS011;9357;49.900;8.208;2022-09-09T01:34:38;3.33;;;1.60;;
18455;SDS011;9357;49.900;8.208;2022-09-09T01:36:13;4.13;;;1.37;;
18455;SDS011;9357;49.900;8.208;2022-09-09T01:37:56;4.37;;;1.50;;
18455;SDS011;9357;49.900;8.208;2022-09-09T01:39:29;4.70;;;1.50;;
18455;SDS011;9357;49.900;8.208;2022-09-09T01:41:02;2.57;;;1.37;;
18455;SDS011;9357;49.900;8.208;2022-09-09T01:42:36;2.23;;;1.20;;
18455;SDS011;9357;49.900;8.208;2022-09-09T01:44:09;4.60;;;1.47;;
18455;SDS011;9357;49.900;8.208;2022-09-09T01:45:42;2.40;;;1.20;;
18455;SDS011;9357;49.900;8.208;2022-09-09T01:47:16;3.07;;;1.30;;
18455;SDS011;9357;49.900;8.208;2022-09-09T01:48:49;1.90;;;1.30;;
18455;SDS011;9357;49.900;8.208;2022-09-09T01:50:22;1.83;;;1.17;;
18455;SDS011;9357;49.900;8.208;2022-09-09T01:51:55;2.27;;;1.10;;
18455;SDS011;9357;49.900;8.208;2022-09-09T01:53:29;3.57;;;1.10;;
18455;SDS011;9357;49.900;8.208;2022-09-09T01:55:00;2.07;;;1.10;;
18455;SDS011;9357;49.900;8.208;2022-09-09T01:56:35;2.40;;;1.50;;
18455;SDS011;9357;49.900;8.208;2022-09-09T01:58:19;4.73;;;1.63;;
18455;SDS011;9357;49.900;8.208;2022-09-09T02:00:02;5.47;;;1.40;;
18455;SDS011;9357;49.900;8.208;2022-09-09T02:01:43;4.43;;;1.60;;
18455;SDS011;9357;49.900;8.208;2022-09-09T02:03:24;4.20;;;1.40;;
18455;SDS011;9357;49.900;8.208;2022-09-09T02:05:03;4.43;;;1.27;;
18455;SDS011;9357;49.900;8.208;2022-09-09T02:06:44;1.83;;;1.00;;
18455;SDS011;9357;49.900;8.208;2022-09-09T02:08:20;2.93;;;1.40;;
18455;SDS011;9357;49.900;8.208;2022-09-09T02:09:57;4.47;;;1.40;;
18455;SDS011;9357;49.900;8.208;2022-09-09T02:11:33;3.47;;;1.47;;
18455;SDS011;9357;49.900;8.208;2022-09-09T02:13:07;4.20;;;1.40;;
18455;SDS011;9357;49.900;8.208;2022-09-09T02:14:45;4.70;;;1.40;;
18455;SDS011;9357;49.900;8.208;2022-09-09T02:16:23;4.17;;;1.40;;
18455;SDS011;9357;49.900;8.208;2022-09-09T02:17:58;2.90;;;1.23;;
18455;SDS011;9357;49.900;8.208;2022-09-09T02:19:34;3.47;;;1.33;;
18455;SDS011;9357;49.900;8.208;2022-09-09T02:21:11;4.30;;;1.40;;
18455;SDS011;9357;49.900;8.208;2022-09-09T02:22:45;2.87;;;1.37;;
18455;SDS011;9357;49.900;8.208;2022-09-09T02:24:22;3.00;;;1.30;;
18455;SDS011;9357;49.900;8.208;2022-09-09T02:25:55;2.33;;;1.33;;
18455;SDS011;9357;49.900;8.208;2022-09-09T02:27:30;3.37;;;1.40;;
18455;SDS011;9357;49.900;8.208;2022-09-09T02:29:04;2.97;;;1.30;;
18455;SDS011;9357;49.900;8.208;2022-09-09T02:30:41;2.83;;;1.20;;
18455;SDS011;9357;49.900;8.208;2022-09-09T02:32:19;2.87;;;1.30;;
18455;SDS011;9357;49.900;8.208;2022-09-09T02:33:55;2.73;;;1.40;;
18455;SDS011;9357;49.900;8.208;2022-09-09T02:35:31;3.70;;;1.53;;
18455;SDS011;9357;49.900;8.208;2022-09-09T02:37:08;2.83;;;1.20;;
18455;SDS011;9357;49.900;8.208;2022-09-09T02:38:45;2.57;;;1.23;;
18455;SDS011;9357;49.900;8.208;2022-09-09T02:40:21;2.83;;;1.40;;
18455;SDS011;9357;49.900;8.208;2022-09-09T02:41:54;2.67;;;1.20;;
18455;SDS011;9357;49.900;8.208;2022-09-09T02:43:30;2.57;;;1.00;;
18455;SDS011;9357;49.900;8.208;2022-09-09T02:45:02;6.83;;;1.73;;
18455;SDS011;9357;49.900;8.208;2022-09-09T02:46:48;2.10;;;1.53;;
18455;SDS011;9357;49.900;8.208;2022-09-09T02:48:40;3.07;;;1.50;;
18455;SDS011;9357;49.900;8.208;2022-09-09T02:50:22;5.57;;;1.70;;
18455;SDS011;9357;49.900;8.208;2022-09-09T02:52:02;2.93;;;1.20;;
18455;SDS011;9357;49.900;8.208;2022-09-09T02:53:39;1.73;;;1.30;;
18455;SDS011;9357;49.900;8.208;2022-09-09T02:55:18;3.57;;;1.33;;
18455;SDS011;9357;49.900;8.208;2022-09-09T02:56:59;3.80;;;1.33;;
18455;SDS011;9357;49.900;8.208;2022-09-09T02:58:38;2.67;;;1.30;;
18455;SDS011;9357;49.900;8.208;2022-09-09T03:00:12;4.10;;;1.37;;
18455;SDS011;9357;49.900;8.208;2022-09-09T03:01:47;3.07;;;1.47;;
18455;SDS011;9357;49.900;8.208;2022-09-09T03:03:19;7.27;;;1.40;;
18455;SDS011;9357;49.900;8.208;2022-09-09T03:04:53;5.00;;;1.40;;
18455;SDS011;9357;49.900;8.208;2022-09-09T03:06:25;2.17;;;1.50;;
18455;SDS011;9357;49.900;8.208;2022-09-09T03:07:59;3.17;;;1.37;;
18455;SDS011;9357;49.900;8.208;2022-09-09T03:09:32;3.23;;;1.50;;
18455;SDS011;9357;49.900;8.208;2022-09-09T03:11:04;3.30;;;1.30;;
18455;SDS011;9357;49.900;8.208;2022-09-09T03:12:36;4.20;;;1.13;;
18455;SDS011;9357;49.900;8.208;2022-09-09T03:14:09;5.03;;;1.40;;
18455;SDS011;9357;49.900;8.208;2022-09-09T03:15:42;3.27;;;1.40;;
18455;SDS011;9357;49.900;8.208;2022-09-09T03:17:16;4.57;;;1.27;;
18455;SDS011;9357;49.900;8.208;2022-09-09T03:18:49;2.53;;;1.30;;
18455;SDS011;9357;49.900;8.208;2022-09-09T03:20:22;2.90;;;1.10;;
18455;SDS011;9357;49.900;8.208;2022-09-09T03:21:55;3.43;;;1.20;;
18455;SDS011;9357;49.900;8.208;2022-09-09T03:23:27;3.77;;;1.20;;
18455;SDS011;9357;49.900;8.208;2022-09-09T03:25:00;4.37;;;1.30;;
18455;SDS011;9357;49.900;8.208;2022-09-09T03:26:33;3.17;;;1.33;;
18455;SDS011;9357;49.900;8.208;2022-09-09T03:28:06;3.80;;;1.40;;
18455;SDS011;9357;49.900;8.208;2022-09-09T03:29:39;2.67;;;1.20;;
18455;SDS011;9357;49.900;8.208;2022-09-09T03:31:11;3.80;;;1.23;;
18455;SDS011;9357;49.900;8.208;2022-09-09T03:32:45;3.63;;;1.20;;
18455;SDS011;9357;49.900;8.208;2022-09-09T03:34:19;3.47;;;1.50;;
18455;SDS011;9357;49.900;8.208;2022-09-09T03:35:51;4.27;;;1.30;;
18455;SDS011;9357;49.900;8.208;2022-09-09T03:37:27;3.37;;;1.40;;
18455;SDS011;9357;49.900;8.208;2022-09-09T03:39:00;2.77;;;1.40;;
18455;SDS011;9357;49.900;8.208;2022-09-09T03:40:34;2.77;;;1.30;;
18455;SDS011;9357;49.900;8.208;2022-09-09T03:42:06;2.30;;;1.00;;
18455;SDS011;9357;49.900;8.208;2022-09-09T03:43:38;3.30;;;1.30;;
18455;SDS011;9357;49.900;8.208;2022-09-09T03:45:11;2.30;;;1.20;;
18455;SDS011;9357;49.900;8.208;2022-09-09T03:46:43;3.23;;;1.10;;
18455;SDS011;9357;49.900;8.208;2022-09-09T03:48:18;2.67;;;1.33;;
18455;SDS011;9357;49.900;8.208;2022-09-09T03:49:51;5.53;;;1.43;;
18455;SDS011;9357;49.900;8.208;2022-09-09T03:51:23;2.37;;;1.20;;
18455;SDS011;9357;49.900;8.208;2022-09-09T03:52:56;3.13;;;1.30;;
18455;SDS011;9357;49.900;8.208;2022-09-09T03:54:29;2.67;;;1.33;;
18455;SDS011;9357;49.900;8.208;2022-09-09T03:56:01;3.27;;;1.20;;
18455;SDS011;9357;49.900;8.208;2022-09-09T03:57:34;3.10;;;1.30;;
18455;SDS011;9357;49.900;8.208;2022-09-09T03:59:07;2.23;;;1.20;;
18455;SDS011;9357;49.900;8.208;2022-09-09T04:00:39;5.07;;;1.40;;
18455;SDS011;9357;49.900;8.208;2022-09-09T04:02:14;3.37;;;1.27;;
18455;SDS011;9357;49.900;8.208;2022-09-09T04:03:48;5.13;;;1.30;;
18455;SDS011;9357;49.900;8.208;2022-09-09T04:05:21;3.67;;;1.17;;
18455;SDS011;9357;49.900;8.208;2022-09-09T04:06:53;2.13;;;1.07;;
18455;SDS011;9357;49.900;8.208;2022-09-09T04:08:25;3.37;;;1.33;;
18455;SDS011;9357;49.900;8.208;2022-09-09T04:09:59;4.50;;;1.20;;
18455;SDS011;9357;49.900;8.208;2022-09-09T04:11:31;5.27;;;1.40;;
18455;SDS011;9357;49.900;8.208;2022-09-09T04:13:05;2.50;;;1.20;;
18455;SDS011;9357;49.900;8.208;2022-09-09T04:14:37;5.20;;;1.20;;
18455;SDS011;9357;49.900;8.208;2022-09-09T04:16:11;2.40;;;1.30;;
18455;SDS011;9357;49.900;8.208;2022-09-09T04:17:44;2.70;;;1.30;;
18455;SDS011;9357;49.900;8.208;2022-09-09T04:19:18;3.60;;;1.43;;
18455;SDS011;9357;49.900;8.208;2022-09-09T04:20:51;2.40;;;1.10;;
18455;SDS011;9357;49.900;8.208;2022-09-09T04:22:25;2.83;;;1.27;;
18455;SDS011;9357;49.900;8.208;2022-09-09T04:23:58;3.93;;;1.27;;
18455;SDS011;9357;49.900;8.208;2022-09-09T04:25:30;3.30;;;1.20;;
18455;SDS011;9357;49.900;8.208;2022-09-09T04:27:05;4.20;;;1.50;;
18455;SDS011;9357;49.900;8.208;2022-09-09T04:28:37;1.83;;;1.20;;
18455;SDS011;9357;49.900;8.208;2022-09-09T04:30:10;3.93;;;1.33;;
18455;SDS011;9357;49.900;8.208;2022-09-09T04:31:44;3.57;;;1.20;;
18455;SDS011;9357;49.900;8.208;2022-09-09T04:33:17;5.40;;;1.40;;
18455;SDS011;9357;49.900;8.208;2022-09-09T04:34:50;2.87;;;1.30;;
18455;SDS011;9357;49.900;8.208;2022-09-09T04:36:23;2.40;;;1.50;;
18455;SDS011;9357;49.900;8.208;2022-09-09T04:37:55;2.90;;;1.30;;
18455;SDS011;9357;49.900;8.208;2022-09-09T04:39:28;1.87;;;1.30;;
18455;SDS011;9357;49.900;8.208;2022-09-09T04:41:01;7.83;;;1.57;;
18455;SDS011;9357;49.900;8.208;2022-09-09T04:42:34;2.47;;;1.40;;
18455;SDS011;9357;49.900;8.208;2022-09-09T04:44:07;1.90;;;1.20;;
18455;SDS011;9357;49.900;8.208;2022-09-09T04:45:39;3.47;;;1.13;;
18455;SDS011;9357;49.900;8.208;2022-09-09T04:47:12;3.00;;;1.30;;
18455;SDS011;9357;49.900;8.208;2022-09-09T04:48:45;3.60;;;1.10;;
18455;SDS011;9357;49.900;8.208;2022-09-09T04:50:19;2.63;;;1.30;;
18455;SDS011;9357;49.900;8.208;2022-09-09T04:51:51;2.93;;;1.20;;
18455;SDS011;9357;49.900;8.208;2022-09-09T04:53:24;2.97;;;1.23;;
18455;SDS011;9357;49.900;8.208;2022-09-09T04:54:58;2.17;;;1.20;;
18455;SDS011;9357;49.900;8.208;2022-09-09T04:56:31;3.90;;;1.27;;
18455;SDS011;9357;49.900;8.208;2022-09-09T04:58:04;1.87;;;1.30;;
18455;SDS011;9357;49.900;8.208;2022-09-09T04:59:37;2.43;;;1.27;;
18455;SDS011;9357;49.900;8.208;2022-09-09T05:01:12;4.57;;;1.20;;
18455;SDS011;9357;49.900;8.208;2022-09-09T05:02:46;2.93;;;1.10;;
18455;SDS011;9357;49.900;8.208;2022-09-09T05:04:19;5.73;;;1.50;;
18455;SDS011;9357;49.900;8.208;2022-09-09T05:05:53;2.53;;;1.20;;
18455;SDS011;9357;49.900;8.208;2022-09-09T05:07:26;1.57;;;1.00;;
18455;SDS011;9357;49.900;8.208;2022-09-09T05:09:00;1.57;;;1.10;;
18455;SDS011;9357;49.900;8.208;2022-09-09T05:10:33;3.87;;;1.40;;
18455;SDS011;9357;49.900;8.208;2022-09-09T05:12:06;3.10;;;1.20;;
18455;SDS011;9357;49.900;8.208;2022-09-09T05:13:39;3.77;;;1.10;;
18455;SDS011;9357;49.900;8.208;2022-09-09T05:15:12;2.37;;;1.17;;
18455;SDS011;9357;49.900;8.208;2022-09-09T05:16:45;2.97;;;1.30;;
18455;SDS011;9357;49.900;8.208;2022-09-09T05:18:18;1.93;;;1.13;;
18455;SDS011;9357;49.900;8.208;2022-09-09T05:19:51;3.27;;;1.20;;
18455;SDS011;9357;49.900;8.208;2022-09-09T05:21:25;2.37;;;1.20;;
18455;SDS011;9357;49.900;8.208;2022-09-09T05:22:59;3.97;;;1.20;;
18455;SDS011;9357;49.900;8.208;2022-09-09T05:24:34;4.30;;;1.10;;
18455;SDS011;9357;49.900;8.208;2022-09-09T05:26:09;3.03;;;1.37;;
18455;SDS011;9357;49.900;8.208;2022-09-09T05:27:47;3.10;;;1.37;;
18455;SDS011;9357;49.900;8.208;2022-09-09T05:29:20;3.87;;;1.30;;
18455;SDS011;9357;49.900;8.208;2022-09-09T05:30:56;4.83;;;1.13;;
18455;SDS011;9357;49.900;8.208;2022-09-09T05:32:31;1.70;;;1.20;;
18455;SDS011;9357;49.900;8.208;2022-09-09T05:34:04;4.57;;;1.60;;
18455;SDS011;9357;49.900;8.208;2022-09-09T05:35:37;2.67;;;1.30;;
18455;SDS011;9357;49.900;8.208;2022-09-09T05:37:11;8.70;;;1.70;;
18455;SDS011;9357;49.900;8.208;2022-09-09T05:38:44;4.70;;;1.30;;
18455;SDS011;9357;49.900;8.208;2022-09-09T05:40:17;3.93;;;1.60;;
18455;SDS011;9357;49.900;8.208;2022-09-09T05:41:50;4.70;;;1.50;;
18455;SDS011;9357;49.900;8.208;2022-09-09T05:43:23;3.40;;;1.50;;
18455;SDS011;9357;49.900;8.208;2022-09-09T05:44:56;4.07;;;1.70;;
18455;SDS011;9357;49.900;8.208;2022-09-09T05:46:29;4.07;;;1.70;;
18455;SDS011;9357;49.900;8.208;2022-09-09T05:48:02;2.23;;;1.80;;
18455;SDS011;9357;49.900;8.208;2022-09-09T05:49:35;4.53;;;1.80;;
18455;SDS011;9357;49.900;8.208;2022-09-09T05:51:08;4.70;;;2.40;;
18455;SDS011;9357;49.900;8.208;2022-09-09T05:52:44;4.53;;;1.90;;
18455;SDS011;9357;49.900;8.208;2022-09-09T05:54:19;4.60;;;2.37;;
18455;SDS011;9357;49.900;8.208;2022-09-09T05:55:57;3.70;;;2.20;;
18455;SDS011;9357;49.900;8.208;2022-09-09T05:57:31;4.53;;;2.20;;
18455;SDS011;9357;49.900;8.208;2022-09-09T05:59:04;5.07;;;2.43;;
18455;SDS011;9357;49.900;8.208;2022-09-09T06:00:37;5.33;;;2.53;;
18455;SDS011;9357;49.900;8.208;2022-09-09T06:02:10;5.67;;;2.70;;
18455;SDS011;9357;49.900;8.208;2022-09-09T06:03:44;4.93;;;2.50;;
18455;SDS011;9357;49.900;8.208;2022-09-09T06:05:18;5.90;;;2.77;;
18455;SDS011;9357;49.900;8.208;2022-09-09T06:06:50;7.63;;;2.90;;
18455;SDS011;9357;49.900;8.208;2022-09-09T06:08:24;6.47;;;2.50;;
18455;SDS011;9357;49.900;8.208;2022-09-09T06:09:57;4.97;;;2.30;;
18455;SDS011;9357;49.900;8.208;2022-09-09T06:11:30;5.93;;;2.60;;
18455;SDS011;9357;49.900;8.208;2022-09-09T06:13:02;3.77;;;1.90;;
18455;SDS011;9357;49.900;8.208;2022-09-09T06:14:35;5.13;;;2.30;;
18455;SDS011;9357;49.900;8.208;2022-09-09T06:16:12;5.23;;;2.00;;
18455;SDS011;9357;49.900;8.208;2022-09-09T06:17:45;6.10;;;2.40;;
18455;SDS011;9357;49.900;8.208;2022-09-09T06:19:18;5.93;;;2.20;;
18455;SDS011;9357;49.900;8.208;2022-09-09T06:20:55;4.97;;;1.90;;
18455;SDS011;9357;49.900;8.208;2022-09-09T06:22:28;4.57;;;2.20;;
18455;SDS011;9357;49.900;8.208;2022-09-09T06:24:03;4.67;;;2.10;;
18455;SDS011;9357;49.900;8.208;2022-09-09T06:25:36;2.93;;;1.87;;
18455;SDS011;9357;49.900;8.208;2022-09-09T06:27:11;6.33;;;2.23;;
18455;SDS011;9357;49.900;8.208;2022-09-09T06:28:44;6.07;;;1.80;;
18455;SDS011;9357;49.900;8.208;2022-09-09T06:30:18;3.53;;;1.93;;
18455;SDS011;9357;49.900;8.208;2022-09-09T06:31:51;3.33;;;2.10;;
18455;SDS011;9357;49.900;8.208;2022-09-09T06:33:24;3.97;;;1.90;;
18455;SDS011;9357;49.900;8.208;2022-09-09T06:34:57;4.17;;;2.13;;
18455;SDS011;9357;49.900;8.208;2022-09-09T06:36:33;3.40;;;1.93;;
18455;SDS011;9357;49.900;8.208;2022-09-09T06:38:07;6.83;;;2.13;;
18455;SDS011;9357;49.900;8.208;2022-09-09T06:39:41;4.50;;;1.90;;
18455;SDS011;9357;49.900;8.208;2022-09-09T06:41:15;4.47;;;1.90;;
18455;SDS011;9357;49.900;8.208;2022-09-09T06:42:49;4.30;;;1.80;;
18455;SDS011;9357;49.900;8.208;2022-09-09T06:44:22;3.10;;;1.80;;
18455;SDS011;9357;49.900;8.208;2022-09-09T06:45:55;3.43;;;2.00;;
18455;SDS011;9357;49.900;8.208;2022-09-09T06:47:29;3.70;;;1.80;;
18455;SDS011;9357;49.900;8.208;2022-09-09T06:49:02;5.30;;;2.43;;
18455;SDS011;9357;49.900;8.208;2022-09-09T06:50:35;4.87;;;2.40;;
18455;SDS011;9357;49.900;8.208;2022-09-09T06:52:07;5.80;;;2.23;;
18455;SDS011;9357;49.900;8.208;2022-09-09T06:53:41;3.83;;;2.10;;
18455;SDS011;9357;49.900;8.208;2022-09-09T06:55:16;5.00;;;2.50;;
18455;SDS011;9357;49.900;8.208;2022-09-09T06:56:49;5.83;;;2.90;;
18455;SDS011;9357;49.900;8.208;2022-09-09T06:58:22;4.97;;;2.43;;
18455;SDS011;9357;49.900;8.208;2022-09-09T06:59:54;5.27;;;2.70;;
18455;SDS011;9357;49.900;8.208;2022-09-09T07:01:28;4.83;;;2.70;;
18455;SDS011;9357;49.900;8.208;2022-09-09T07:03:03;5.03;;;2.50;;
18455;SDS011;9357;49.900;8.208;2022-09-09T07:04:36;7.70;;;3.00;;
18455;SDS011;9357;49.900;8.208;2022-09-09T07:06:09;5.83;;;3.00;;
18455;SDS011;9357;49.900;8.208;2022-09-09T07:07:48;6.03;;;2.87;;
18455;SDS011;9357;49.900;8.208;2022-09-09T07:09:20;5.73;;;2.70;;
18455;SDS011;9357;49.900;8.208;2022-09-09T07:10:54;4.60;;;2.70;;
18455;SDS011;9357;49.900;8.208;2022-09-09T07:12:41;5.10;;;2.83;;
18455;SDS011;9357;49.900;8.208;2022-09-09T07:14:15;4.97;;;2.53;;
18455;SDS011;9357;49.900;8.208;2022-09-09T07:15:48;4.60;;;2.80;;
18455;SDS011;9357;49.900;8.208;2022-09-09T07:17:20;4.87;;;2.73;;
18455;SDS011;9357;49.900;8.208;2022-09-09T07:18:53;5.37;;;2.80;;
18455;SDS011;9357;49.900;8.208;2022-09-09T07:20:28;5.17;;;3.00;;
18455;SDS011;9357;49.900;8.208;2022-09-09T07:22:01;7.33;;;3.10;;
18455;SDS011;9357;49.900;8.208;2022-09-09T07:23:34;5.83;;;3.23;;
18455;SDS011;9357;49.900;8.208;2022-09-09T07:25:07;5.60;;;3.20;;
18455;SDS011;9357;49.900;8.208;2022-09-09T07:26:42;3.83;;;2.70;;
18455;SDS011;9357;49.900;8.208;2022-09-09T07:28:15;9.10;;;3.70;;
18455;SDS011;9357;49.900;8.208;2022-09-09T07:29:48;4.93;;;3.07;;
18455;SDS011;9357;49.900;8.208;2022-09-09T07:31:22;7.30;;;3.43;;
18455;SDS011;9357;49.900;8.208;2022-09-09T07:32:57;6.40;;;2.97;;
18455;SDS011;9357;49.900;8.208;2022-09-09T07:34:30;6.37;;;3.23;;
18455;SDS011;9357;49.900;8.208;2022-09-09T07:36:03;6.67;;;3.20;;
18455;SDS011;9357;49.900;8.208;2022-09-09T07:37:38;6.40;;;3.37;;
18455;SDS011;9357;49.900;8.208;2022-09-09T07:39:12;5.53;;;3.37;;
18455;SDS011;9357;49.900;8.208;2022-09-09T07:40:48;7.90;;;3.37;;
18455;SDS011;9357;49.900;8.208;2022-09-09T07:42:22;7.27;;;3.47;;
18455;SDS011;9357;49.900;8.208;2022-09-09T07:43:56;4.80;;;2.97;;
18455;SDS011;9357;49.900;8.208;2022-09-09T07:45:29;5.60;;;3.27;;
18455;SDS011;9357;49.900;8.208;2022-09-09T07:47:04;4.80;;;3.10;;
18455;SDS011;9357;49.900;8.208;2022-09-09T07:48:37;6.90;;;3.17;;
18455;SDS011;9357;49.900;8.208;2022-09-09T07:50:17;4.70;;;2.47;;
18455;SDS011;9357;49.900;8.208;2022-09-09T07:51:50;5.10;;;2.60;;
18455;SDS011;9357;49.900;8.208;2022-09-09T07:53:23;6.40;;;2.90;;
18455;SDS011;9357;49.900;8.208;2022-09-09T07:54:55;5.73;;;2.80;;
18455;SDS011;9357;49.900;8.208;2022-09-09T07:56:28;4.37;;;2.43;;
18455;SDS011;9357;49.900;8.208;2022-09-09T07:58:05;4.93;;;2.30;;
18455;SDS011;9357;49.900;8.208;2022-09-09T07:59:37;5.23;;;2.57;;
18455;SDS011;9357;49.900;8.208;2022-09-09T08:01:11;6.13;;;2.50;;
18455;SDS011;9357;49.900;8.208;2022-09-09T08:02:44;7.03;;;2.60;;
18455;SDS011;9357;49.900;8.208;2022-09-09T08:04:18;5.57;;;2.40;;
18455;SDS011;9357;49.900;8.208;2022-09-09T08:05:51;4.20;;;2.77;;
18455;SDS011;9357;49.900;8.208;2022-09-09T08:07:24;5.33;;;2.10;;
18455;SDS011;9357;49.900;8.208;2022-09-09T08:08:57;6.33;;;2.30;;
18455;SDS011;9357;49.900;8.208;2022-09-09T08:10:29;3.07;;;2.03;;
18455;SDS011;9357;49.900;8.208;2022-09-09T08:12:02;5.80;;;2.13;;
18455;SDS011;9357;49.900;8.208;2022-09-09T08:13:38;4.80;;;2.20;;
18455;SDS011;9357;49.900;8.208;2022-09-09T08:15:11;5.07;;;2.10;;
18455;SDS011;9357;49.900;8.208;2022-09-09T08:16:45;4.07;;;1.70;;
18455;SDS011;9357;49.900;8.208;2022-09-09T08:18:20;5.30;;;2.20;;
18455;SDS011;9357;49.900;8.208;2022-09-09T08:19:53;7.73;;;2.10;;
18455;SDS011;9357;49.900;8.208;2022-09-09T08:21:27;4.77;;;2.10;;
18455;SDS011;9357;49.900;8.208;2022-09-09T08:23:00;4.43;;;1.90;;
18455;SDS011;9357;49.900;8.208;2022-09-09T08:24:33;4.97;;;2.10;;
18455;SDS011;9357;49.900;8.208;2022-09-09T08:26:09;4.93;;;2.13;;
18455;SDS011;9357;49.900;8.208;2022-09-09T08:27:44;4.90;;;1.90;;
18455;SDS011;9357;49.900;8.208;2022-09-09T08:29:18;3.37;;;1.90;;
18455;SDS011;9357;49.900;8.208;2022-09-09T08:30:51;6.53;;;1.87;;
18455;SDS011;9357;49.900;8.208;2022-09-09T08:32:24;3.07;;;1.83;;
18455;SDS011;9357;49.900;8.208;2022-09-09T08:33:58;3.93;;;1.93;;
18455;SDS011;9357;49.900;8.208;2022-09-09T08:35:31;4.77;;;2.10;;
18455;SDS011;9357;49.900;8.208;2022-09-09T08:37:04;5.23;;;2.00;;
18455;SDS011;9357;49.900;8.208;2022-09-09T08:38:37;5.17;;;1.80;;
18455;SDS011;9357;49.900;8.208;2022-09-09T08:40:10;6.57;;;1.80;;
18455;SDS011;9357;49.900;8.208;2022-09-09T08:44:10;4.77;;;1.83;;
18455;SDS011;9357;49.900;8.208;2022-09-09T08:45:49;4.97;;;1.97;;
18455;SDS011;9357;49.900;8.208;2022-09-09T08:47:30;3.87;;;1.83;;
18455;SDS011;9357;49.900;8.208;2022-09-09T08:51:11;4.77;;;1.70;;
18455;SDS011;9357;49.900;8.208;2022-09-09T08:52:47;4.03;;;1.70;;
18455;SDS011;9357;49.900;8.208;2022-09-09T08:54:24;5.50;;;1.50;;
18455;SDS011;9357;49.900;8.208;2022-09-09T08:56:22;5.20;;;1.50;;
18455;SDS011;9357;49.900;8.208;2022-09-09T08:57:57;4.53;;;1.70;;
18455;SDS011;9357;49.900;8.208;2022-09-09T08:59:32;2.97;;;1.80;;
18455;SDS011;9357;49.900;8.208;2022-09-09T09:01:28;4.87;;;1.97;;
18455;SDS011;9357;49.900;8.208;2022-09-09T09:03:15;4.67;;;1.90;;
18455;SDS011;9357;49.900;8.208;2022-09-09T09:04:57;5.67;;;1.83;;
18455;SDS011;9357;49.900;8.208;2022-09-09T09:06:40;4.63;;;1.70;;
18455;SDS011;9357;49.900;8.208;2022-09-09T09:08:24;3.37;;;1.73;;
18455;SDS011;9357;49.900;8.208;2022-09-09T09:10:03;8.33;;;1.87;;
18455;SDS011;9357;49.900;8.208;2022-09-09T09:12:02;4.60;;;1.50;;
18455;SDS011;9357;49.900;8.208;2022-09-09T09:13:47;5.73;;;1.47;;
18455;SDS011;9357;49.900;8.208;2022-09-09T09:15:27;3.63;;;1.57;;
18455;SDS011;9357;49.900;8.208;2022-09-09T09:17:11;3.33;;;1.50;;
18455;SDS011;9357;49.900;8.208;2022-09-09T09:18:46;3.67;;;1.40;;
18455;SDS011;9357;49.900;8.208;2022-09-09T09:20:20;5.43;;;1.40;;
18455;SDS011;9357;49.900;8.208;2022-09-09T09:22:02;5.80;;;2.00;;
18455;SDS011;9357;49.900;8.208;2022-09-09T09:23:39;4.70;;;1.50;;
18455;SDS011;9357;49.900;8.208;2022-09-09T09:25:16;3.70;;;1.50;;
18455;SDS011;9357;49.900;8.208;2022-09-09T09:26:50;3.80;;;1.40;;
18455;SDS011;9357;49.900;8.208;2022-09-09T09:28:24;1.90;;;1.57;;
18455;SDS011;9357;49.900;8.208;2022-09-09T09:29:59;5.20;;;1.47;;
18455;SDS011;9357;49.900;8.208;2022-09-09T09:31:55;3.57;;;1.37;;
18455;SDS011;9357;49.900;8.208;2022-09-09T09:33:34;4.63;;;1.47;;
18455;SDS011;9357;49.900;8.208;2022-09-09T09:35:15;3.00;;;1.23;;
18455;SDS011;9357;49.900;8.208;2022-09-09T09:36:52;2.53;;;1.23;;
18455;SDS011;9357;49.900;8.208;2022-09-09T09:38:27;3.30;;;1.30;;
18455;SDS011;9357;49.900;8.208;2022-09-09T09:40:21;4.67;;;1.33;;
18455;SDS011;9357;49.900;8.208;2022-09-09T09:41:54;4.17;;;1.27;;
18455;SDS011;9357;49.900;8.208;2022-09-09T09:43:29;3.43;;;1.57;;
18455;SDS011;9357;49.900;8.208;2022-09-09T09:45:14;4.37;;;1.50;;
18455;SDS011;9357;49.900;8.208;2022-09-09T09:46:52;3.47;;;1.30;;
18455;SDS011;9357;49.900;8.208;2022-09-09T09:48:38;2.60;;;1.30;;
18455;SDS011;9357;49.900;8.208;2022-09-09T09:50:17;2.73;;;1.10;;
18455;SDS011;9357;49.900;8.208;2022-09-09T09:51:51;4.37;;;1.40;;